This is the latest recevied weather packets stored in our database for station/object OK1PHM-12. If no packets are shown the sender has not sent any weather packets the latest 10 day(s).
| Time | Temp. | Humidity | Pressure | Rain* | Wind** | Luminosity | Snow |
|---|---|---|---|---|---|---|---|
| 1777436283 | 3.33° C | 61% | 1026.3 hPa | - | - | - | - |
| 1777435382 | 1.11° C | 68% | 1026.2 hPa | - | - | - | - |
| 1777434481 | 0.56° C | 69% | 1026.1 hPa | - | - | - | - |
| 1777433580 | 0.56° C | 70% | 1026 hPa | - | - | - | - |
| 1777432679 | 0.56° C | 70% | 1026 hPa | - | - | - | - |
| 1777431778 | 0.56° C | 70% | 1025.9 hPa | - | - | - | - |
| 1777430878 | 1.11° C | 69% | 1026 hPa | - | - | - | - |
| 1777429977 | 1.11° C | 68% | 1025.9 hPa | - | - | - | - |
| 1777429076 | 1.11° C | 68% | 1025.8 hPa | - | - | - | - |
| 1777428174 | 1.11° C | 68% | 1025.7 hPa | - | - | - | - |
| 1777427274 | 1.67° C | 68% | 1025.7 hPa | - | - | - | - |
| 1777426376 | 1.67° C | 67% | 1025.6 hPa | - | - | - | - |
| 1777425472 | 1.67° C | 66% | 1025.6 hPa | - | - | - | - |
| 1777424571 | 2.22° C | 65% | 1025.4 hPa | - | - | - | - |
| 1777423670 | 2.22° C | 65% | 1025.5 hPa | - | - | - | - |
| 1777422769 | 2.78° C | 64% | 1025.4 hPa | - | - | - | - |
| 1777421869 | 2.78° C | 64% | 1025.5 hPa | - | - | - | - |
| 1777420968 | 3.33° C | 63% | 1025.4 hPa | - | - | - | - |
| 1777420067 | 3.89° C | 61% | 1025.4 hPa | - | - | - | - |
| 1777419166 | 3.89° C | 61% | 1025.4 hPa | - | - | - | - |
| 1777418265 | 3.89° C | 60% | 1025.4 hPa | - | - | - | - |
| 1777417365 | 4.44° C | 56% | 1025.3 hPa | - | - | - | - |
| 1777416464 | 5.56° C | 51% | 1025.2 hPa | - | - | - | - |
| 1777415563 | 6.11° C | 48% | 1025.1 hPa | - | - | - | - |
| 1777414662 | 6.67° C | 45% | 1025.1 hPa | - | - | - | - |
* Rain since midnight (hover to see other rain measurements)
** Current wind speed in m/s (hover to see current wind gust speed)